Main page
METAR-TAF:

METAR-TAF

Airports :

Höga Kusten Airport

Kramfors, Sweden

latitude: 63-03N, longitude: 017-46E, elevation: 10 m

Current weather observation

The report was made 35 minutes ago, at 17:50 UTC
Wind 9 kt from the South/Southeast
Temperature 21°C
Humidity 73%
Pressure 1011 hPa
Visibility 10 km or more

METAR: ESNK 231750Z AUTO 16009KT 9999 NCD 21/16 Q1011

Time: 20:25 (18:25 UTC)


TAF: missing

Weather observations and forecasts of more than 4000 airports (METAR and TAF reports).

The available stations are represented by yellow and red dots on the map.

Hover mouse over dot to see the name of the station.

Then click to see weather observations and forecasts.

To change the map : click on the green buttons with a black cross to zoom in, on the green button with a dash to zoom out, or on the green arrows for adjacent maps.


METAR-TAF: